METAR Data

Data at: 0624 UTC 28 Sep 2022

METAR for:KCQX (Chatham Muni, MA, US)
Text:KCQX 280552Z AUTO 25003KT 10SM CLR 14/10 A2996 RMK AO2 SLP147 T01440100 10183 20144 51012
Temperature: 14.4°C ( 58°F)
Dewpoint: 10.0°C ( 50°F) [RH = 75%]
Pressure (altimeter):29.96 inches Hg (1014.6 mb) [Sea level pressure: 1014.7 mb]
Winds:from the WSW (250 degrees) at 3 MPH (3 knots; 1.5 m/s)
Visibility:10 or more sm (16+ km)
Ceiling:at least 12,000 feet AGL
Clouds:sky clear below 12,000 feet AGL
QC Flag:automated observation with no human augmentation